sensor_id;sensor_type;location;lat;lon;timestamp;temperature;humidity
14682;DHT22;7429;52.498;13.480;2023-06-14T00:00:07;15.10;99.90
14682;DHT22;7429;52.498;13.480;2023-06-14T00:03:11;15.10;99.90
14682;DHT22;7429;52.498;13.480;2023-06-14T00:06:19;15.00;99.90
14682;DHT22;7429;52.498;13.480;2023-06-14T00:09:24;15.00;99.90
14682;DHT22;7429;52.498;13.480;2023-06-14T00:12:29;14.90;99.90
14682;DHT22;7429;52.498;13.480;2023-06-14T00:15:33;15.00;99.90
14682;DHT22;7429;52.498;13.480;2023-06-14T00:18:36;15.00;99.90
14682;DHT22;7429;52.498;13.480;2023-06-14T00:21:40;15.00;99.90
14682;DHT22;7429;52.498;13.480;2023-06-14T00:24:44;14.90;99.90
14682;DHT22;7429;52.498;13.480;2023-06-14T00:27:48;14.90;99.90
14682;DHT22;7429;52.498;13.480;2023-06-14T00:30:52;14.80;99.90
14682;DHT22;7429;52.498;13.480;2023-06-14T00:33:55;14.80;99.90
14682;DHT22;7429;52.498;13.480;2023-06-14T00:36:58;14.70;99.90
14682;DHT22;7429;52.498;13.480;2023-06-14T00:40:04;14.70;99.90
14682;DHT22;7429;52.498;13.480;2023-06-14T00:43:08;14.70;99.90
14682;DHT22;7429;52.498;13.480;2023-06-14T00:46:11;14.70;99.90
14682;DHT22;7429;52.498;13.480;2023-06-14T00:49:17;14.70;99.90
14682;DHT22;7429;52.498;13.480;2023-06-14T00:52:22;14.60;99.90
14682;DHT22;7429;52.498;13.480;2023-06-14T00:55:28;14.70;99.90
14682;DHT22;7429;52.498;13.480;2023-06-14T00:58:32;14.60;99.90
14682;DHT22;7429;52.498;13.480;2023-06-14T01:01:35;14.60;99.90
14682;DHT22;7429;52.498;13.480;2023-06-14T01:04:57;14.60;99.90
14682;DHT22;7429;52.498;13.480;2023-06-14T01:08:11;14.60;99.90
14682;DHT22;7429;52.498;13.480;2023-06-14T01:11:24;14.50;99.90
14682;DHT22;7429;52.498;13.480;2023-06-14T01:14:31;14.50;99.90
14682;DHT22;7429;52.498;13.480;2023-06-14T01:17:37;14.50;99.90
14682;DHT22;7429;52.498;13.480;2023-06-14T01:20:44;14.50;99.90
14682;DHT22;7429;52.498;13.480;2023-06-14T01:23:52;14.50;99.90
14682;DHT22;7429;52.498;13.480;2023-06-14T01:26:58;14.50;99.90
14682;DHT22;7429;52.498;13.480;2023-06-14T01:30:02;14.40;99.90
14682;DHT22;7429;52.498;13.480;2023-06-14T01:33:07;14.40;99.90
14682;DHT22;7429;52.498;13.480;2023-06-14T01:36:10;14.40;99.90
14682;DHT22;7429;52.498;13.480;2023-06-14T01:39:18;14.40;99.90
14682;DHT22;7429;52.498;13.480;2023-06-14T01:42:23;14.40;99.90
14682;DHT22;7429;52.498;13.480;2023-06-14T01:45:27;14.40;99.90
14682;DHT22;7429;52.498;13.480;2023-06-14T01:48:31;14.30;99.90
14682;DHT22;7429;52.498;13.480;2023-06-14T01:51:35;14.30;99.90
14682;DHT22;7429;52.498;13.480;2023-06-14T01:54:39;14.30;99.90
14682;DHT22;7429;52.498;13.480;2023-06-14T01:57:44;14.30;99.90
14682;DHT22;7429;52.498;13.480;2023-06-14T02:00:47;14.20;99.90
14682;DHT22;7429;52.498;13.480;2023-06-14T02:03:51;14.20;99.90
14682;DHT22;7429;52.498;13.480;2023-06-14T02:06:55;14.20;99.90
14682;DHT22;7429;52.498;13.480;2023-06-14T02:10:00;14.20;99.90
14682;DHT22;7429;52.498;13.480;2023-06-14T02:13:03;14.20;99.90
14682;DHT22;7429;52.498;13.480;2023-06-14T02:16:06;14.10;99.90
14682;DHT22;7429;52.498;13.480;2023-06-14T02:19:12;14.10;99.90
14682;DHT22;7429;52.498;13.480;2023-06-14T02:22:15;14.10;99.90
14682;DHT22;7429;52.498;13.480;2023-06-14T02:25:20;14.00;99.90
14682;DHT22;7429;52.498;13.480;2023-06-14T02:28:23;14.00;99.90
14682;DHT22;7429;52.498;13.480;2023-06-14T02:31:26;14.00;99.90
14682;DHT22;7429;52.498;13.480;2023-06-14T02:34:30;13.80;99.90
14682;DHT22;7429;52.498;13.480;2023-06-14T02:37:34;13.90;99.90
14682;DHT22;7429;52.498;13.480;2023-06-14T02:40:39;13.80;99.90
14682;DHT22;7429;52.498;13.480;2023-06-14T02:43:44;13.80;99.90
14682;DHT22;7429;52.498;13.480;2023-06-14T02:46:47;13.80;99.90
14682;DHT22;7429;52.498;13.480;2023-06-14T02:49:51;13.80;99.90
14682;DHT22;7429;52.498;13.480;2023-06-14T02:52:54;13.90;99.90
14682;DHT22;7429;52.498;13.480;2023-06-14T02:56:00;13.90;99.90
14682;DHT22;7429;52.498;13.480;2023-06-14T02:59:05;13.80;99.90
14682;DHT22;7429;52.498;13.480;2023-06-14T03:02:09;13.80;99.90
14682;DHT22;7429;52.498;13.480;2023-06-14T03:05:12;13.80;99.90
14682;DHT22;7429;52.498;13.480;2023-06-14T03:08:17;13.80;99.90
14682;DHT22;7429;52.498;13.480;2023-06-14T03:11:25;13.80;99.90
14682;DHT22;7429;52.498;13.480;2023-06-14T03:14:28;13.80;99.90
14682;DHT22;7429;52.498;13.480;2023-06-14T03:17:32;13.80;99.90
14682;DHT22;7429;52.498;13.480;2023-06-14T03:20:38;13.90;99.90
14682;DHT22;7429;52.498;13.480;2023-06-14T03:23:42;13.90;99.90
14682;DHT22;7429;52.498;13.480;2023-06-14T03:26:48;13.90;99.90
14682;DHT22;7429;52.498;13.480;2023-06-14T03:29:51;13.80;99.90
14682;DHT22;7429;52.498;13.480;2023-06-14T03:32:54;13.80;99.90
14682;DHT22;7429;52.498;13.480;2023-06-14T03:36:01;13.80;99.90
14682;DHT22;7429;52.498;13.480;2023-06-14T03:39:05;13.90;99.90
14682;DHT22;7429;52.498;13.480;2023-06-14T03:42:10;13.90;99.90
14682;DHT22;7429;52.498;13.480;2023-06-14T03:45:14;13.90;99.90
14682;DHT22;7429;52.498;13.480;2023-06-14T03:48:17;13.80;99.90
14682;DHT22;7429;52.498;13.480;2023-06-14T03:51:21;13.90;99.90
14682;DHT22;7429;52.498;13.480;2023-06-14T03:54:24;13.90;99.90
14682;DHT22;7429;52.498;13.480;2023-06-14T03:57:50;13.90;99.90
14682;DHT22;7429;52.498;13.480;2023-06-14T04:00:53;13.90;99.90
14682;DHT22;7429;52.498;13.480;2023-06-14T04:03:59;14.00;99.90
14682;DHT22;7429;52.498;13.480;2023-06-14T04:07:03;14.00;99.90
14682;DHT22;7429;52.498;13.480;2023-06-14T04:10:08;14.10;99.90
14682;DHT22;7429;52.498;13.480;2023-06-14T04:13:12;14.30;99.90
14682;DHT22;7429;52.498;13.480;2023-06-14T04:16:16;14.40;99.90
14682;DHT22;7429;52.498;13.480;2023-06-14T04:19:20;14.50;99.90
14682;DHT22;7429;52.498;13.480;2023-06-14T04:22:23;14.60;99.90
14682;DHT22;7429;52.498;13.480;2023-06-14T04:25:26;14.60;99.90
14682;DHT22;7429;52.498;13.480;2023-06-14T04:28:33;14.70;99.90
14682;DHT22;7429;52.498;13.480;2023-06-14T04:31:44;14.70;99.90
14682;DHT22;7429;52.498;13.480;2023-06-14T04:34:48;14.70;99.90
14682;DHT22;7429;52.498;13.480;2023-06-14T04:37:56;14.70;99.90
14682;DHT22;7429;52.498;13.480;2023-06-14T04:41:00;14.90;99.90
14682;DHT22;7429;52.498;13.480;2023-06-14T04:44:05;14.90;99.90
14682;DHT22;7429;52.498;13.480;2023-06-14T04:47:13;15.10;99.90
14682;DHT22;7429;52.498;13.480;2023-06-14T04:50:18;15.10;99.90
14682;DHT22;7429;52.498;13.480;2023-06-14T04:53:22;15.00;99.90
14682;DHT22;7429;52.498;13.480;2023-06-14T04:56:29;15.20;99.90
14682;DHT22;7429;52.498;13.480;2023-06-14T04:59:35;15.30;99.90
14682;DHT22;7429;52.498;13.480;2023-06-14T05:02:38;15.30;99.90
14682;DHT22;7429;52.498;13.480;2023-06-14T05:05:43;15.30;99.90
14682;DHT22;7429;52.498;13.480;2023-06-14T05:08:47;15.30;99.90
14682;DHT22;7429;52.498;13.480;2023-06-14T05:11:50;15.30;99.90
14682;DHT22;7429;52.498;13.480;2023-06-14T05:14:56;15.20;99.90
14682;DHT22;7429;52.498;13.480;2023-06-14T05:18:00;15.20;99.90
14682;DHT22;7429;52.498;13.480;2023-06-14T05:21:04;15.30;99.90
14682;DHT22;7429;52.498;13.480;2023-06-14T05:24:07;15.40;99.90
14682;DHT22;7429;52.498;13.480;2023-06-14T05:27:11;15.40;99.90
14682;DHT22;7429;52.498;13.480;2023-06-14T05:30:16;15.40;99.90
14682;DHT22;7429;52.498;13.480;2023-06-14T05:33:19;15.50;99.90
14682;DHT22;7429;52.498;13.480;2023-06-14T05:36:23;15.40;99.90
14682;DHT22;7429;52.498;13.480;2023-06-14T05:39:26;15.50;99.90
14682;DHT22;7429;52.498;13.480;2023-06-14T05:42:30;15.70;99.90
14682;DHT22;7429;52.498;13.480;2023-06-14T05:45:34;15.80;99.90
14682;DHT22;7429;52.498;13.480;2023-06-14T05:48:37;15.90;99.90
14682;DHT22;7429;52.498;13.480;2023-06-14T05:51:40;15.90;99.90
14682;DHT22;7429;52.498;13.480;2023-06-14T05:54:43;16.00;99.90
14682;DHT22;7429;52.498;13.480;2023-06-14T05:57:47;16.00;99.90
14682;DHT22;7429;52.498;13.480;2023-06-14T06:00:52;15.90;99.90
14682;DHT22;7429;52.498;13.480;2023-06-14T06:03:55;15.90;99.90
14682;DHT22;7429;52.498;13.480;2023-06-14T06:06:58;15.80;99.90
14682;DHT22;7429;52.498;13.480;2023-06-14T06:10:02;15.80;99.90
14682;DHT22;7429;52.498;13.480;2023-06-14T06:13:06;15.90;99.90
14682;DHT22;7429;52.498;13.480;2023-06-14T06:16:14;15.90;99.90
14682;DHT22;7429;52.498;13.480;2023-06-14T06:19:17;15.80;99.90
14682;DHT22;7429;52.498;13.480;2023-06-14T06:22:21;15.80;99.90
14682;DHT22;7429;52.498;13.480;2023-06-14T06:25:24;15.80;99.90
14682;DHT22;7429;52.498;13.480;2023-06-14T06:28:28;15.80;99.90
14682;DHT22;7429;52.498;13.480;2023-06-14T06:31:32;15.80;99.90
14682;DHT22;7429;52.498;13.480;2023-06-14T06:34:36;15.80;99.90
14682;DHT22;7429;52.498;13.480;2023-06-14T06:37:40;15.80;99.90
14682;DHT22;7429;52.498;13.480;2023-06-14T06:40:44;15.80;99.90
14682;DHT22;7429;52.498;13.480;2023-06-14T06:43:47;16.00;99.90
14682;DHT22;7429;52.498;13.480;2023-06-14T06:46:53;16.00;99.90
14682;DHT22;7429;52.498;13.480;2023-06-14T06:49:56;16.10;99.90
14682;DHT22;7429;52.498;13.480;2023-06-14T06:52:59;16.20;99.90
14682;DHT22;7429;52.498;13.480;2023-06-14T06:56:02;16.30;99.90
14682;DHT22;7429;52.498;13.480;2023-06-14T06:59:06;16.50;99.90
14682;DHT22;7429;52.498;13.480;2023-06-14T07:02:11;16.50;99.90
14682;DHT22;7429;52.498;13.480;2023-06-14T07:05:14;16.60;99.90
14682;DHT22;7429;52.498;13.480;2023-06-14T07:08:18;16.70;99.90
14682;DHT22;7429;52.498;13.480;2023-06-14T07:11:21;16.80;99.90
14682;DHT22;7429;52.498;13.480;2023-06-14T07:14:25;16.80;99.90
14682;DHT22;7429;52.498;13.480;2023-06-14T07:17:30;16.90;99.90
14682;DHT22;7429;52.498;13.480;2023-06-14T07:20:33;16.90;99.90
14682;DHT22;7429;52.498;13.480;2023-06-14T07:23:38;17.00;99.90
14682;DHT22;7429;52.498;13.480;2023-06-14T07:26:41;17.10;99.90
14682;DHT22;7429;52.498;13.480;2023-06-14T07:29:45;17.20;99.90
14682;DHT22;7429;52.498;13.480;2023-06-14T07:32:49;17.40;99.90
14682;DHT22;7429;52.498;13.480;2023-06-14T07:35:52;17.60;99.90
14682;DHT22;7429;52.498;13.480;2023-06-14T07:38:55;17.70;99.90
14682;DHT22;7429;52.498;13.480;2023-06-14T07:41:59;17.80;99.90
14682;DHT22;7429;52.498;13.480;2023-06-14T07:45:02;17.90;99.90
14682;DHT22;7429;52.498;13.480;2023-06-14T07:48:08;17.80;99.90
14682;DHT22;7429;52.498;13.480;2023-06-14T07:51:12;17.80;99.90
14682;DHT22;7429;52.498;13.480;2023-06-14T07:54:18;18.00;99.90
14682;DHT22;7429;52.498;13.480;2023-06-14T07:57:22;18.00;99.90
14682;DHT22;7429;52.498;13.480;2023-06-14T08:00:25;18.10;99.90
14682;DHT22;7429;52.498;13.480;2023-06-14T08:03:31;18.20;99.90
14682;DHT22;7429;52.498;13.480;2023-06-14T08:06:34;18.20;99.90
14682;DHT22;7429;52.498;13.480;2023-06-14T08:09:37;18.30;99.90
14682;DHT22;7429;52.498;13.480;2023-06-14T08:12:41;18.50;99.90
14682;DHT22;7429;52.498;13.480;2023-06-14T08:15:44;18.50;99.90
14682;DHT22;7429;52.498;13.480;2023-06-14T08:18:49;18.60;99.90
14682;DHT22;7429;52.498;13.480;2023-06-14T08:21:53;18.70;99.90
14682;DHT22;7429;52.498;13.480;2023-06-14T08:24:57;18.80;99.90
14682;DHT22;7429;52.498;13.480;2023-06-14T08:28:00;18.70;99.90
14682;DHT22;7429;52.498;13.480;2023-06-14T08:31:03;18.80;99.90
14682;DHT22;7429;52.498;13.480;2023-06-14T08:34:08;19.00;99.90
14682;DHT22;7429;52.498;13.480;2023-06-14T08:37:11;19.10;99.90
14682;DHT22;7429;52.498;13.480;2023-06-14T08:40:20;19.10;99.90
14682;DHT22;7429;52.498;13.480;2023-06-14T08:43:24;19.20;99.90
14682;DHT22;7429;52.498;13.480;2023-06-14T08:46:27;19.20;99.90
14682;DHT22;7429;52.498;13.480;2023-06-14T08:49:33;19.20;99.90
14682;DHT22;7429;52.498;13.480;2023-06-14T08:52:41;19.20;99.90
14682;DHT22;7429;52.498;13.480;2023-06-14T08:55:52;19.30;99.90
14682;DHT22;7429;52.498;13.480;2023-06-14T08:58:56;19.40;99.90
14682;DHT22;7429;52.498;13.480;2023-06-14T09:02:03;19.50;99.90
14682;DHT22;7429;52.498;13.480;2023-06-14T09:05:15;19.60;99.90
14682;DHT22;7429;52.498;13.480;2023-06-14T09:08:20;19.60;99.90
14682;DHT22;7429;52.498;13.480;2023-06-14T09:11:24;19.70;99.90
14682;DHT22;7429;52.498;13.480;2023-06-14T09:14:28;19.90;99.90
14682;DHT22;7429;52.498;13.480;2023-06-14T09:17:32;19.90;99.90
14682;DHT22;7429;52.498;13.480;2023-06-14T09:20:38;20.00;99.90
14682;DHT22;7429;52.498;13.480;2023-06-14T09:23:42;19.70;99.90
14682;DHT22;7429;52.498;13.480;2023-06-14T09:26:51;19.70;99.90
14682;DHT22;7429;52.498;13.480;2023-06-14T09:29:55;19.70;99.90
14682;DHT22;7429;52.498;13.480;2023-06-14T09:32:59;19.80;99.90
14682;DHT22;7429;52.498;13.480;2023-06-14T09:36:05;19.80;99.90
14682;DHT22;7429;52.498;13.480;2023-06-14T09:39:17;19.90;99.90
14682;DHT22;7429;52.498;13.480;2023-06-14T09:42:21;20.10;99.90
14682;DHT22;7429;52.498;13.480;2023-06-14T09:45:27;20.10;99.90
14682;DHT22;7429;52.498;13.480;2023-06-14T09:48:33;20.00;99.90
14682;DHT22;7429;52.498;13.480;2023-06-14T09:51:43;20.00;99.90
14682;DHT22;7429;52.498;13.480;2023-06-14T09:54:48;19.90;99.90
14682;DHT22;7429;52.498;13.480;2023-06-14T09:57:52;19.90;99.90
14682;DHT22;7429;52.498;13.480;2023-06-14T10:00:56;20.00;99.90
14682;DHT22;7429;52.498;13.480;2023-06-14T10:04:02;20.10;99.90
14682;DHT22;7429;52.498;13.480;2023-06-14T10:07:13;20.10;99.90
14682;DHT22;7429;52.498;13.480;2023-06-14T10:10:21;20.10;99.90
14682;DHT22;7429;52.498;13.480;2023-06-14T10:13:29;20.00;99.90
14682;DHT22;7429;52.498;13.480;2023-06-14T10:16:39;20.10;99.90
14682;DHT22;7429;52.498;13.480;2023-06-14T10:19:51;20.20;99.90
14682;DHT22;7429;52.498;13.480;2023-06-14T10:23:03;20.30;99.90
14682;DHT22;7429;52.498;13.480;2023-06-14T10:26:19;20.20;99.90
14682;DHT22;7429;52.498;13.480;2023-06-14T10:29:24;20.40;99.90
14682;DHT22;7429;52.498;13.480;2023-06-14T10:32:27;20.40;99.90
14682;DHT22;7429;52.498;13.480;2023-06-14T10:35:31;20.30;99.90
14682;DHT22;7429;52.498;13.480;2023-06-14T10:38:38;20.20;99.90
14682;DHT22;7429;52.498;13.480;2023-06-14T10:41:42;20.10;99.90
14682;DHT22;7429;52.498;13.480;2023-06-14T10:44:54;20.10;99.90
14682;DHT22;7429;52.498;13.480;2023-06-14T10:47:58;20.20;99.90
14682;DHT22;7429;52.498;13.480;2023-06-14T10:51:04;20.30;99.90
14682;DHT22;7429;52.498;13.480;2023-06-14T10:54:11;20.40;99.90
14682;DHT22;7429;52.498;13.480;2023-06-14T10:57:15;20.40;99.90
14682;DHT22;7429;52.498;13.480;2023-06-14T11:00:19;20.40;99.90
14682;DHT22;7429;52.498;13.480;2023-06-14T11:03:51;20.50;99.90
14682;DHT22;7429;52.498;13.480;2023-06-14T11:10:36;20.90;99.90
14682;DHT22;7429;52.498;13.480;2023-06-14T11:13:44;20.80;99.90
14682;DHT22;7429;52.498;13.480;2023-06-14T11:16:50;20.90;99.90
14682;DHT22;7429;52.498;13.480;2023-06-14T11:20:07;20.90;99.90
14682;DHT22;7429;52.498;13.480;2023-06-14T11:23:11;21.10;99.90
14682;DHT22;7429;52.498;13.480;2023-06-14T11:26:15;21.10;99.90
14682;DHT22;7429;52.498;13.480;2023-06-14T11:29:20;21.20;99.90
14682;DHT22;7429;52.498;13.480;2023-06-14T11:32:23;21.30;99.90
14682;DHT22;7429;52.498;13.480;2023-06-14T11:35:26;21.40;99.90
14682;DHT22;7429;52.498;13.480;2023-06-14T11:38:30;21.40;99.90
14682;DHT22;7429;52.498;13.480;2023-06-14T11:41:36;21.70;99.90
14682;DHT22;7429;52.498;13.480;2023-06-14T11:44:40;21.70;99.90
14682;DHT22;7429;52.498;13.480;2023-06-14T11:47:43;21.80;99.90
14682;DHT22;7429;52.498;13.480;2023-06-14T11:50:49;22.00;99.90
14682;DHT22;7429;52.498;13.480;2023-06-14T11:53:54;22.10;99.90
14682;DHT22;7429;52.498;13.480;2023-06-14T11:56:59;22.10;99.90
14682;DHT22;7429;52.498;13.480;2023-06-14T12:00:03;22.30;99.90
14682;DHT22;7429;52.498;13.480;2023-06-14T12:03:12;22.40;99.90
14682;DHT22;7429;52.498;13.480;2023-06-14T12:06:16;22.60;99.90
14682;DHT22;7429;52.498;13.480;2023-06-14T12:09:29;22.80;99.90
14682;DHT22;7429;52.498;13.480;2023-06-14T12:12:35;23.00;99.90
14682;DHT22;7429;52.498;13.480;2023-06-14T12:15:39;23.30;99.90
14682;DHT22;7429;52.498;13.480;2023-06-14T12:18:42;23.50;99.90
14682;DHT22;7429;52.498;13.480;2023-06-14T12:21:47;23.50;99.90
14682;DHT22;7429;52.498;13.480;2023-06-14T12:24:52;23.90;99.90
14682;DHT22;7429;52.498;13.480;2023-06-14T12:28:04;24.40;99.90
14682;DHT22;7429;52.498;13.480;2023-06-14T12:31:08;24.70;99.90
14682;DHT22;7429;52.498;13.480;2023-06-14T12:34:11;25.00;99.90
14682;DHT22;7429;52.498;13.480;2023-06-14T12:37:14;25.50;99.90
14682;DHT22;7429;52.498;13.480;2023-06-14T12:40:17;25.90;99.90
14682;DHT22;7429;52.498;13.480;2023-06-14T12:43:22;26.20;99.90
14682;DHT22;7429;52.498;13.480;2023-06-14T12:46:25;26.20;99.90
14682;DHT22;7429;52.498;13.480;2023-06-14T12:49:28;26.50;99.90
14682;DHT22;7429;52.498;13.480;2023-06-14T12:52:31;26.40;99.90
14682;DHT22;7429;52.498;13.480;2023-06-14T12:55:37;26.00;99.90
14682;DHT22;7429;52.498;13.480;2023-06-14T12:58:42;25.70;99.90
14682;DHT22;7429;52.498;13.480;2023-06-14T13:01:45;25.40;99.90
14682;DHT22;7429;52.498;13.480;2023-06-14T13:04:51;25.20;99.90
14682;DHT22;7429;52.498;13.480;2023-06-14T13:07:54;25.30;99.90
14682;DHT22;7429;52.498;13.480;2023-06-14T13:10:58;25.50;99.90
14682;DHT22;7429;52.498;13.480;2023-06-14T13:14:02;26.10;99.90
14682;DHT22;7429;52.498;13.480;2023-06-14T13:17:26;26.40;99.90
14682;DHT22;7429;52.498;13.480;2023-06-14T13:20:30;26.60;99.90
14682;DHT22;7429;52.498;13.480;2023-06-14T13:23:33;26.70;99.90
14682;DHT22;7429;52.498;13.480;2023-06-14T13:26:36;26.60;99.90
14682;DHT22;7429;52.498;13.480;2023-06-14T13:29:40;27.00;99.90
14682;DHT22;7429;52.498;13.480;2023-06-14T13:32:44;27.20;99.90
14682;DHT22;7429;52.498;13.480;2023-06-14T13:35:51;27.50;99.90
14682;DHT22;7429;52.498;13.480;2023-06-14T13:38:54;27.60;99.90
14682;DHT22;7429;52.498;13.480;2023-06-14T13:41:58;27.10;99.90
14682;DHT22;7429;52.498;13.480;2023-06-14T13:45:03;27.20;99.90
14682;DHT22;7429;52.498;13.480;2023-06-14T13:48:07;27.00;99.90
14682;DHT22;7429;52.498;13.480;2023-06-14T13:51:10;26.70;99.90
14682;DHT22;7429;52.498;13.480;2023-06-14T13:54:13;26.60;99.90
14682;DHT22;7429;52.498;13.480;2023-06-14T13:57:17;26.60;99.90
14682;DHT22;7429;52.498;13.480;2023-06-14T14:00:25;26.40;99.90
14682;DHT22;7429;52.498;13.480;2023-06-14T14:03:28;26.30;99.90
14682;DHT22;7429;52.498;13.480;2023-06-14T14:06:31;26.80;99.90
14682;DHT22;7429;52.498;13.480;2023-06-14T14:09:35;26.60;99.90
14682;DHT22;7429;52.498;13.480;2023-06-14T14:12:39;26.50;99.90
14682;DHT22;7429;52.498;13.480;2023-06-14T14:15:43;26.20;99.90
14682;DHT22;7429;52.498;13.480;2023-06-14T14:18:46;26.20;99.90
14682;DHT22;7429;52.498;13.480;2023-06-14T14:21:50;26.20;99.90
14682;DHT22;7429;52.498;13.480;2023-06-14T14:24:55;26.30;99.90
14682;DHT22;7429;52.498;13.480;2023-06-14T14:27:58;27.00;99.90
14682;DHT22;7429;52.498;13.480;2023-06-14T14:31:03;27.20;99.90
14682;DHT22;7429;52.498;13.480;2023-06-14T14:34:07;27.50;99.90
14682;DHT22;7429;52.498;13.480;2023-06-14T14:37:10;27.30;99.90
14682;DHT22;7429;52.498;13.480;2023-06-14T14:40:15;27.20;99.90
14682;DHT22;7429;52.498;13.480;2023-06-14T14:43:18;27.30;99.90
14682;DHT22;7429;52.498;13.480;2023-06-14T14:46:23;27.10;99.90
14682;DHT22;7429;52.498;13.480;2023-06-14T14:49:26;26.70;99.90
14682;DHT22;7429;52.498;13.480;2023-06-14T14:52:29;26.70;99.90
14682;DHT22;7429;52.498;13.480;2023-06-14T14:55:32;26.80;99.90
14682;DHT22;7429;52.498;13.480;2023-06-14T14:58:36;26.70;99.90
14682;DHT22;7429;52.498;13.480;2023-06-14T15:01:41;26.80;99.90
14682;DHT22;7429;52.498;13.480;2023-06-14T15:04:44;26.50;99.90
14682;DHT22;7429;52.498;13.480;2023-06-14T15:07:47;25.90;99.90
14682;DHT22;7429;52.498;13.480;2023-06-14T15:10:50;25.50;99.90
14682;DHT22;7429;52.498;13.480;2023-06-14T15:13:53;25.10;99.90
14682;DHT22;7429;52.498;13.480;2023-06-14T15:16:58;24.70;99.90
14682;DHT22;7429;52.498;13.480;2023-06-14T15:20:04;24.40;99.90
14682;DHT22;7429;52.498;13.480;2023-06-14T15:23:08;24.10;99.90
14682;DHT22;7429;52.498;13.480;2023-06-14T15:26:12;24.10;99.90
14682;DHT22;7429;52.498;13.480;2023-06-14T15:29:15;24.10;99.90
14682;DHT22;7429;52.498;13.480;2023-06-14T15:32:19;24.10;99.90
14682;DHT22;7429;52.498;13.480;2023-06-14T15:35:23;23.90;99.90
14682;DHT22;7429;52.498;13.480;2023-06-14T15:38:26;23.80;99.90
14682;DHT22;7429;52.498;13.480;2023-06-14T15:41:29;23.70;99.90
14682;DHT22;7429;52.498;13.480;2023-06-14T15:44:32;23.90;99.90
14682;DHT22;7429;52.498;13.480;2023-06-14T15:47:37;23.90;99.90
14682;DHT22;7429;52.498;13.480;2023-06-14T15:50:40;23.70;99.90
14682;DHT22;7429;52.498;13.480;2023-06-14T15:53:44;23.50;99.90
14682;DHT22;7429;52.498;13.480;2023-06-14T15:56:47;23.50;99.90
14682;DHT22;7429;52.498;13.480;2023-06-14T15:59:50;23.40;99.90
14682;DHT22;7429;52.498;13.480;2023-06-14T16:02:55;23.40;99.90
14682;DHT22;7429;52.498;13.480;2023-06-14T16:05:58;23.40;99.90
14682;DHT22;7429;52.498;13.480;2023-06-14T16:09:01;23.20;99.90
14682;DHT22;7429;52.498;13.480;2023-06-14T16:12:07;23.00;99.90
14682;DHT22;7429;52.498;13.480;2023-06-14T16:15:11;23.00;99.90
14682;DHT22;7429;52.498;13.480;2023-06-14T16:18:16;22.90;99.90
14682;DHT22;7429;52.498;13.480;2023-06-14T16:21:19;22.90;99.90
14682;DHT22;7429;52.498;13.480;2023-06-14T16:24:22;22.70;99.90
14682;DHT22;7429;52.498;13.480;2023-06-14T16:27:25;22.70;99.90
14682;DHT22;7429;52.498;13.480;2023-06-14T16:30:29;22.70;99.90
14682;DHT22;7429;52.498;13.480;2023-06-14T16:33:33;22.60;99.90
14682;DHT22;7429;52.498;13.480;2023-06-14T16:36:37;22.60;99.90
14682;DHT22;7429;52.498;13.480;2023-06-14T16:39:40;22.70;99.90
14682;DHT22;7429;52.498;13.480;2023-06-14T16:42:44;22.70;99.90
14682;DHT22;7429;52.498;13.480;2023-06-14T16:45:47;22.60;99.90
14682;DHT22;7429;52.498;13.480;2023-06-14T16:48:51;22.60;99.90
14682;DHT22;7429;52.498;13.480;2023-06-14T16:51:54;22.50;99.90
14682;DHT22;7429;52.498;13.480;2023-06-14T16:55:01;22.40;99.90
14682;DHT22;7429;52.498;13.480;2023-06-14T16:58:04;22.40;99.90
14682;DHT22;7429;52.498;13.480;2023-06-14T17:01:09;22.30;99.90
14682;DHT22;7429;52.498;13.480;2023-06-14T17:04:26;22.20;99.90
14682;DHT22;7429;52.498;13.480;2023-06-14T17:07:29;22.00;99.90
14682;DHT22;7429;52.498;13.480;2023-06-14T17:10:33;22.00;99.90
14682;DHT22;7429;52.498;13.480;2023-06-14T17:13:36;21.90;99.90
14682;DHT22;7429;52.498;13.480;2023-06-14T17:16:40;21.90;99.90
14682;DHT22;7429;52.498;13.480;2023-06-14T17:19:46;21.90;99.90
14682;DHT22;7429;52.498;13.480;2023-06-14T17:22:49;21.90;99.90
14682;DHT22;7429;52.498;13.480;2023-06-14T17:25:52;21.90;99.90
14682;DHT22;7429;52.498;13.480;2023-06-14T17:28:56;21.80;99.90
14682;DHT22;7429;52.498;13.480;2023-06-14T17:31:59;21.80;99.90
14682;DHT22;7429;52.498;13.480;2023-06-14T17:35:05;21.80;99.90
14682;DHT22;7429;52.498;13.480;2023-06-14T17:38:08;21.80;99.90
14682;DHT22;7429;52.498;13.480;2023-06-14T17:41:13;21.80;99.90
14682;DHT22;7429;52.498;13.480;2023-06-14T17:44:21;21.80;99.90
14682;DHT22;7429;52.498;13.480;2023-06-14T17:47:24;21.80;99.90
14682;DHT22;7429;52.498;13.480;2023-06-14T17:50:31;21.70;99.90
14682;DHT22;7429;52.498;13.480;2023-06-14T17:53:37;21.70;99.90
14682;DHT22;7429;52.498;13.480;2023-06-14T17:56:40;21.80;99.90
14682;DHT22;7429;52.498;13.480;2023-06-14T17:59:43;21.90;99.90
14682;DHT22;7429;52.498;13.480;2023-06-14T18:02:47;21.90;99.90
14682;DHT22;7429;52.498;13.480;2023-06-14T18:05:52;21.80;99.90
14682;DHT22;7429;52.498;13.480;2023-06-14T18:08:55;21.70;99.90
14682;DHT22;7429;52.498;13.480;2023-06-14T18:11:58;21.70;99.90
14682;DHT22;7429;52.498;13.480;2023-06-14T18:15:02;21.70;99.90
14682;DHT22;7429;52.498;13.480;2023-06-14T18:18:07;21.70;99.90
14682;DHT22;7429;52.498;13.480;2023-06-14T18:21:12;21.60;99.90
14682;DHT22;7429;52.498;13.480;2023-06-14T18:24:16;21.60;99.90
14682;DHT22;7429;52.498;13.480;2023-06-14T18:27:21;21.70;99.90
14682;DHT22;7429;52.498;13.480;2023-06-14T18:30:25;21.60;99.90
14682;DHT22;7429;52.498;13.480;2023-06-14T18:33:28;21.50;99.90
14682;DHT22;7429;52.498;13.480;2023-06-14T18:36:32;21.60;99.90
14682;DHT22;7429;52.498;13.480;2023-06-14T18:39:39;21.70;99.90
14682;DHT22;7429;52.498;13.480;2023-06-14T18:42:43;21.70;99.90
14682;DHT22;7429;52.498;13.480;2023-06-14T18:45:46;21.70;99.90
14682;DHT22;7429;52.498;13.480;2023-06-14T18:48:49;21.70;99.90
14682;DHT22;7429;52.498;13.480;2023-06-14T18:51:56;21.60;99.90
14682;DHT22;7429;52.498;13.480;2023-06-14T18:54:59;21.60;99.90
14682;DHT22;7429;52.498;13.480;2023-06-14T18:58:06;21.60;99.90
14682;DHT22;7429;52.498;13.480;2023-06-14T19:01:09;21.50;99.90
14682;DHT22;7429;52.498;13.480;2023-06-14T19:04:16;21.40;99.90
14682;DHT22;7429;52.498;13.480;2023-06-14T19:07:38;21.30;99.90
14682;DHT22;7429;52.498;13.480;2023-06-14T19:10:43;21.30;99.90
14682;DHT22;7429;52.498;13.480;2023-06-14T19:13:46;21.30;99.90
14682;DHT22;7429;52.498;13.480;2023-06-14T19:16:52;21.30;99.90
14682;DHT22;7429;52.498;13.480;2023-06-14T19:19:56;21.20;99.90
14682;DHT22;7429;52.498;13.480;2023-06-14T19:23:02;21.20;99.90
14682;DHT22;7429;52.498;13.480;2023-06-14T19:26:07;21.20;99.90
14682;DHT22;7429;52.498;13.480;2023-06-14T19:29:11;21.20;99.90